N236PW KHEF-KRDG
Flight info
| Callsign | N236PW |
|---|---|
| Flight time | N/A |
| Altitude | 7000 |
| Route | EMI LRP |
| Aircraft | BE36/L-BDFGLORY/S |
Departure
| Time | 2026-04-24 16:27 |
|---|---|
| Airport | Manassas Regional Airport/Harry P. Davis Field (KHEF) |
Arrival
| Time | N/A |
|---|---|
| Airport | Reading Regional Airport (Carl A Spaatz Field) (KRDG) |
| Time | Latitude | Longitude | Altitude | Speed | Heading |
|---|---|---|---|---|---|
| 2026-04-24 16:12 | 38.72118 | -77.51870 | 182 ft | 0 kts | 49° |
| 2026-04-24 16:24 | 38.72168 | -77.51867 | 182 ft | 10 kts | 54° |
| 2026-04-24 16:24 | 38.72115 | -77.51801 | 182 ft | 14 kts | 153° |
| 2026-04-24 16:24 | 38.72019 | -77.51739 | 178 ft | 17 kts | 153° |
| 2026-04-24 16:24 | 38.71912 | -77.51659 | 177 ft | 18 kts | 150° |
| 2026-04-24 16:25 | 38.71819 | -77.51597 | 178 ft | 13 kts | 153° |
| 2026-04-24 16:25 | 38.71764 | -77.51536 | 177 ft | 9 kts | 79° |
| 2026-04-24 16:25 | 38.71801 | -77.51485 | 177 ft | 0 kts | 1° |
| 2026-04-24 16:26 | 38.71813 | -77.51489 | 177 ft | 6 kts | 335° |
| 2026-04-24 16:26 | 38.72012 | -77.51634 | 177 ft | 65 kts | 330° |
| 2026-04-24 16:26 | 38.73107 | -77.52431 | 430 ft | 104 kts | 341° |
| 2026-04-24 16:27 | 38.73813 | -77.52491 | 665 ft | 103 kts | 11° |
| 2026-04-24 16:27 | 38.74473 | -77.52091 | 828 ft | 109 kts | 37° |
| 2026-04-24 16:27 | 38.75017 | -77.51361 | 1000 ft | 120 kts | 46° |
| 2026-04-24 16:27 | 38.75585 | -77.50529 | 1223 ft | 125 kts | 44° |
| 2026-04-24 16:28 | 38.76159 | -77.49667 | 1378 ft | 128 kts | 44° |
| 2026-04-24 16:28 | 38.76730 | -77.48795 | 1585 ft | 128 kts | 44° |
| 2026-04-24 16:28 | 38.78122 | -77.47365 | 2067 ft | 128 kts | 21° |
| 2026-04-24 16:29 | 38.78939 | -77.46840 | 2232 ft | 137 kts | 24° |
| 2026-04-24 16:29 | 38.79793 | -77.46239 | 2370 ft | 142 kts | 22° |
| 2026-04-24 16:29 | 38.81510 | -77.45061 | 2693 ft | 138 kts | 22° |
| 2026-04-24 16:30 | 38.83210 | -77.43895 | 3017 ft | 139 kts | 22° |
| 2026-04-24 16:30 | 38.84058 | -77.43310 | 3192 ft | 139 kts | 22° |
| 2026-04-24 16:30 | 38.84920 | -77.42721 | 3364 ft | 142 kts | 23° |
| 2026-04-24 16:31 | 38.85794 | -77.42117 | 3529 ft | 143 kts | 22° |
| 2026-04-24 16:31 | 38.86659 | -77.41524 | 3702 ft | 139 kts | 22° |
| 2026-04-24 16:31 | 38.87504 | -77.40942 | 3870 ft | 136 kts | 21° |
| 2026-04-24 16:31 | 38.88342 | -77.40366 | 4043 ft | 137 kts | 21° |
| 2026-04-24 16:32 | 38.89171 | -77.39796 | 4212 ft | 136 kts | 22° |
| 2026-04-24 16:32 | 38.90009 | -77.39218 | 4398 ft | 134 kts | 21° |
| 2026-04-24 16:32 | 38.90828 | -77.38654 | 4574 ft | 133 kts | 21° |
| 2026-04-24 16:32 | 38.91641 | -77.38094 | 4749 ft | 133 kts | 21° |
| 2026-04-24 16:33 | 38.92458 | -77.37532 | 4918 ft | 133 kts | 21° |
| 2026-04-24 16:33 | 38.93274 | -77.36970 | 5091 ft | 134 kts | 21° |
| 2026-04-24 16:33 | 38.94086 | -77.36410 | 5259 ft | 134 kts | 20° |
| 2026-04-24 16:33 | 38.94916 | -77.35839 | 5438 ft | 134 kts | 20° |
| 2026-04-24 16:34 | 38.95750 | -77.35266 | 5495 ft | 143 kts | 21° |
| 2026-04-24 16:34 | 38.96646 | -77.34649 | 5502 ft | 149 kts | 21° |
| 2026-04-24 16:34 | 38.97576 | -77.34005 | 5508 ft | 154 kts | 21° |
| 2026-04-24 16:34 | 38.98540 | -77.33334 | 5509 ft | 157 kts | 22° |
| 2026-04-24 16:35 | 38.99506 | -77.32672 | 5509 ft | 158 kts | 21° |
| 2026-04-24 16:35 | 39.00484 | -77.31996 | 5509 ft | 161 kts | 22° |
| 2026-04-24 16:35 | 39.01459 | -77.31320 | 5511 ft | 162 kts | 22° |
| 2026-04-24 16:35 | 39.02457 | -77.30630 | 5507 ft | 163 kts | 21° |
| 2026-04-24 16:36 | 39.03460 | -77.29938 | 5509 ft | 164 kts | 21° |
| 2026-04-24 16:36 | 39.04469 | -77.29240 | 5531 ft | 165 kts | 21° |
| 2026-04-24 16:36 | 39.05478 | -77.28540 | 5531 ft | 165 kts | 22° |
| 2026-04-24 16:36 | 39.06490 | -77.27841 | 5535 ft | 166 kts | 22° |
| 2026-04-24 16:37 | 39.07515 | -77.27131 | 5533 ft | 168 kts | 21° |
| 2026-04-24 16:37 | 39.08546 | -77.26418 | 5535 ft | 169 kts | 22° |
| 2026-04-24 16:37 | 39.09576 | -77.25704 | 5534 ft | 168 kts | 21° |
| 2026-04-24 16:37 | 39.10605 | -77.24991 | 5540 ft | 169 kts | 21° |
| 2026-04-24 16:38 | 39.11647 | -77.24267 | 5538 ft | 171 kts | 22° |
| 2026-04-24 16:38 | 39.12699 | -77.23539 | 5534 ft | 172 kts | 22° |
| 2026-04-24 16:38 | 39.13753 | -77.22807 | 5536 ft | 171 kts | 21° |
| 2026-04-24 16:38 | 39.14790 | -77.22089 | 5535 ft | 168 kts | 22° |
| 2026-04-24 16:39 | 39.15814 | -77.21376 | 5538 ft | 167 kts | 22° |
| 2026-04-24 16:39 | 39.16840 | -77.20662 | 5530 ft | 167 kts | 22° |
| 2026-04-24 16:39 | 39.17864 | -77.19953 | 5533 ft | 167 kts | 22° |
| 2026-04-24 16:39 | 39.18893 | -77.19239 | 5532 ft | 168 kts | 22° |
| 2026-04-24 16:40 | 39.19918 | -77.18525 | 5532 ft | 167 kts | 22° |
| 2026-04-24 16:40 | 39.20936 | -77.17817 | 5533 ft | 166 kts | 22° |
| 2026-04-24 16:40 | 39.21950 | -77.17112 | 5529 ft | 165 kts | 22° |
| 2026-04-24 16:40 | 39.22955 | -77.16412 | 5529 ft | 164 kts | 22° |
| 2026-04-24 16:41 | 39.23959 | -77.15713 | 5528 ft | 164 kts | 22° |
| 2026-04-24 16:41 | 39.24965 | -77.15014 | 5527 ft | 164 kts | 22° |
| 2026-04-24 16:41 | 39.25972 | -77.14312 | 5526 ft | 164 kts | 22° |
| 2026-04-24 16:41 | 39.26974 | -77.13613 | 5526 ft | 163 kts | 22° |
| 2026-04-24 16:42 | 39.27974 | -77.12918 | 5525 ft | 163 kts | 22° |
| 2026-04-24 16:42 | 39.28972 | -77.12221 | 5528 ft | 163 kts | 22° |
| 2026-04-24 16:42 | 39.29963 | -77.11531 | 5527 ft | 161 kts | 21° |
| 2026-04-24 16:42 | 39.30951 | -77.10840 | 5530 ft | 162 kts | 22° |
| 2026-04-24 16:43 | 39.31953 | -77.10143 | 5530 ft | 164 kts | 23° |
| 2026-04-24 16:43 | 39.32951 | -77.09448 | 5534 ft | 163 kts | 22° |
| 2026-04-24 16:43 | 39.33949 | -77.08747 | 5530 ft | 163 kts | 22° |
| 2026-04-24 16:43 | 39.34944 | -77.08053 | 5528 ft | 162 kts | 22° |
| 2026-04-24 16:44 | 39.35937 | -77.07360 | 5531 ft | 162 kts | 22° |
| 2026-04-24 16:44 | 39.36932 | -77.06663 | 5529 ft | 163 kts | 22° |
| 2026-04-24 16:44 | 39.37929 | -77.05966 | 5523 ft | 163 kts | 22° |
| 2026-04-24 16:44 | 39.38930 | -77.05266 | 5523 ft | 164 kts | 22° |
| 2026-04-24 16:45 | 39.39936 | -77.04563 | 5521 ft | 164 kts | 22° |
| 2026-04-24 16:45 | 39.40940 | -77.03859 | 5522 ft | 165 kts | 22° |
| 2026-04-24 16:45 | 39.41948 | -77.03155 | 5519 ft | 164 kts | 22° |
| 2026-04-24 16:45 | 39.42953 | -77.02450 | 5523 ft | 165 kts | 22° |
| 2026-04-24 16:46 | 39.43970 | -77.01739 | 5515 ft | 167 kts | 22° |
| 2026-04-24 16:46 | 39.44995 | -77.01022 | 5510 ft | 167 kts | 22° |
| 2026-04-24 16:46 | 39.46013 | -77.00304 | 5513 ft | 168 kts | 22° |
| 2026-04-24 16:46 | 39.47047 | -76.99580 | 5506 ft | 169 kts | 22° |
| 2026-04-24 16:47 | 39.48075 | -76.98860 | 5502 ft | 167 kts | 22° |
| 2026-04-24 16:47 | 39.49092 | -76.98146 | 5502 ft | 166 kts | 22° |
| 2026-04-24 16:47 | 39.50055 | -76.97286 | 5507 ft | 172 kts | 33° |
| 2026-04-24 16:47 | 39.50962 | -76.96278 | 5507 ft | 172 kts | 34° |
| 2026-04-24 16:48 | 39.51876 | -76.95271 | 5508 ft | 172 kts | 33° |
| 2026-04-24 16:48 | 39.52792 | -76.94288 | 5504 ft | 170 kts | 32° |
| 2026-04-24 16:48 | 39.53688 | -76.93309 | 5505 ft | 169 kts | 33° |
| 2026-04-24 16:48 | 39.54591 | -76.92323 | 5510 ft | 171 kts | 32° |
| 2026-04-24 16:49 | 39.55501 | -76.91334 | 5499 ft | 170 kts | 32° |
| 2026-04-24 16:49 | 39.56392 | -76.90365 | 5502 ft | 169 kts | 32° |
| 2026-04-24 16:49 | 39.57307 | -76.89365 | 5499 ft | 170 kts | 33° |
| 2026-04-24 16:49 | 39.58205 | -76.88389 | 5501 ft | 169 kts | 33° |
| 2026-04-24 16:50 | 39.58799 | -76.87740 | 5504 ft | 169 kts | 32° |
| 2026-04-24 16:50 | 39.59998 | -76.86434 | 5518 ft | 171 kts | 33° |
| 2026-04-24 16:50 | 39.60906 | -76.85443 | 5512 ft | 170 kts | 33° |
| 2026-04-24 16:50 | 39.61808 | -76.84459 | 5513 ft | 169 kts | 32° |
| 2026-04-24 16:51 | 39.62705 | -76.83479 | 5508 ft | 168 kts | 32° |
| 2026-04-24 16:51 | 39.63593 | -76.82508 | 5507 ft | 166 kts | 32° |
| 2026-04-24 16:51 | 39.64478 | -76.81542 | 5512 ft | 167 kts | 32° |
| 2026-04-24 16:51 | 39.65369 | -76.80571 | 5509 ft | 167 kts | 32° |
| 2026-04-24 16:52 | 39.66259 | -76.79597 | 5511 ft | 168 kts | 33° |
| 2026-04-24 16:52 | 39.67146 | -76.78626 | 5506 ft | 166 kts | 33° |
| 2026-04-24 16:52 | 39.68033 | -76.77657 | 5504 ft | 166 kts | 32° |
| 2026-04-24 16:52 | 39.68913 | -76.76692 | 5505 ft | 165 kts | 32° |
| 2026-04-24 16:53 | 39.69794 | -76.75729 | 5503 ft | 166 kts | 32° |
| 2026-04-24 16:53 | 39.70677 | -76.74762 | 5509 ft | 168 kts | 32° |
| 2026-04-24 16:53 | 39.71576 | -76.73778 | 5509 ft | 170 kts | 32° |
| 2026-04-24 16:53 | 39.72475 | -76.72791 | 5510 ft | 169 kts | 32° |
| 2026-04-24 16:54 | 39.73373 | -76.71808 | 5510 ft | 169 kts | 32° |
| 2026-04-24 16:54 | 39.74282 | -76.70814 | 5511 ft | 171 kts | 33° |
| 2026-04-24 16:54 | 39.75186 | -76.69816 | 5510 ft | 171 kts | 32° |
| 2026-04-24 16:54 | 39.76091 | -76.68822 | 5511 ft | 170 kts | 32° |
| 2026-04-24 16:55 | 39.76996 | -76.67829 | 5515 ft | 170 kts | 32° |
| 2026-04-24 16:55 | 39.77904 | -76.66837 | 5512 ft | 169 kts | 32° |
| 2026-04-24 16:55 | 39.78797 | -76.65854 | 5508 ft | 168 kts | 32° |
| 2026-04-24 16:55 | 39.79686 | -76.64878 | 5507 ft | 167 kts | 32° |
| 2026-04-24 16:56 | 39.80574 | -76.63900 | 5510 ft | 167 kts | 32° |
| 2026-04-24 16:56 | 39.81469 | -76.62917 | 5508 ft | 169 kts | 32° |
| 2026-04-24 16:56 | 39.82366 | -76.61926 | 5506 ft | 169 kts | 33° |
| 2026-04-24 16:56 | 39.83266 | -76.60940 | 5511 ft | 169 kts | 33° |
| 2026-04-24 16:57 | 39.84169 | -76.59946 | 5510 ft | 170 kts | 32° |
| 2026-04-24 16:57 | 39.85074 | -76.58948 | 5508 ft | 171 kts | 32° |
| 2026-04-24 16:57 | 39.85978 | -76.57953 | 5507 ft | 170 kts | 32° |
| 2026-04-24 16:57 | 39.86873 | -76.56966 | 5503 ft | 168 kts | 32° |
| 2026-04-24 16:58 | 39.87763 | -76.55987 | 5501 ft | 167 kts | 32° |
| 2026-04-24 16:58 | 39.88641 | -76.55015 | 5499 ft | 165 kts | 32° |
| 2026-04-24 16:58 | 39.89518 | -76.54044 | 5501 ft | 166 kts | 32° |
| 2026-04-24 16:58 | 39.90401 | -76.53075 | 5501 ft | 166 kts | 33° |
| 2026-04-24 16:59 | 39.91279 | -76.52106 | 5499 ft | 165 kts | 33° |
| 2026-04-24 16:59 | 39.92155 | -76.51139 | 5501 ft | 166 kts | 32° |
| 2026-04-24 16:59 | 39.93932 | -76.49175 | 5504 ft | 168 kts | 32° |
| 2026-04-24 17:00 | 39.94817 | -76.48195 | 5498 ft | 165 kts | 32° |
| 2026-04-24 17:00 | 39.96564 | -76.46262 | 5497 ft | 165 kts | 32° |
| 2026-04-24 17:00 | 39.97440 | -76.45293 | 5499 ft | 165 kts | 32° |
| 2026-04-24 17:01 | 39.99208 | -76.43335 | 5498 ft | 167 kts | 32° |
| 2026-04-24 17:01 | 40.00094 | -76.42355 | 5498 ft | 167 kts | 32° |
| 2026-04-24 17:02 | 40.01561 | -76.40729 | 5499 ft | 167 kts | 32° |
| 2026-04-24 17:02 | 40.02444 | -76.39747 | 5500 ft | 167 kts | 33° |
| 2026-04-24 17:02 | 40.03334 | -76.38762 | 5499 ft | 168 kts | 32° |
| 2026-04-24 17:02 | 40.04219 | -76.37779 | 5499 ft | 166 kts | 32° |
| 2026-04-24 17:03 | 40.05989 | -76.35815 | 5496 ft | 168 kts | 32° |
| 2026-04-24 17:03 | 40.06883 | -76.34822 | 5497 ft | 168 kts | 32° |
| 2026-04-24 17:03 | 40.07773 | -76.33832 | 5496 ft | 168 kts | 32° |
| 2026-04-24 17:04 | 40.08660 | -76.32845 | 5504 ft | 167 kts | 32° |
| 2026-04-24 17:04 | 40.10436 | -76.30870 | 5503 ft | 168 kts | 32° |
| 2026-04-24 17:04 | 40.11322 | -76.29882 | 5503 ft | 167 kts | 33° |
| 2026-04-24 17:05 | 40.12024 | -76.28630 | 5501 ft | 180 kts | 60° |
| 2026-04-24 17:05 | 40.12300 | -76.26999 | 5501 ft | 186 kts | 72° |
| 2026-04-24 17:05 | 40.12737 | -76.23684 | 5503 ft | 185 kts | 72° |
| 2026-04-24 17:06 | 40.12959 | -76.22029 | 5504 ft | 185 kts | 72° |
| 2026-04-24 17:06 | 40.13410 | -76.18706 | 5506 ft | 186 kts | 72° |
| 2026-04-24 17:06 | 40.13633 | -76.17043 | 5504 ft | 186 kts | 72° |
| 2026-04-24 17:07 | 40.13859 | -76.15378 | 5507 ft | 186 kts | 72° |
| 2026-04-24 17:07 | 40.14082 | -76.13706 | 5507 ft | 187 kts | 72° |
| 2026-04-24 17:07 | 40.14529 | -76.10372 | 5508 ft | 185 kts | 72° |
| 2026-04-24 17:08 | 40.14976 | -76.07043 | 5507 ft | 187 kts | 72° |
| 2026-04-24 17:08 | 40.15199 | -76.05373 | 5501 ft | 185 kts | 72° |
| 2026-04-24 17:08 | 40.15418 | -76.03719 | 5502 ft | 184 kts | 72° |
| 2026-04-24 17:09 | 40.15856 | -76.00428 | 5502 ft | 185 kts | 71° |
| 2026-04-24 17:09 | 40.16299 | -75.97126 | 5500 ft | 184 kts | 72° |
| 2026-04-24 17:10 | 40.16517 | -75.95479 | 5500 ft | 184 kts | 72° |
| 2026-04-24 17:10 | 40.18268 | -75.91321 | 5505 ft | 173 kts | 44° |
| 2026-04-24 17:11 | 40.20591 | -75.87530 | 4640 ft | 180 kts | 44° |
| 2026-04-24 17:12 | 40.25387 | -75.83209 | 3019 ft | 168 kts | 350° |